sensor_id;sensor_type;location;lat;lon;timestamp;P1;P2;P0
32503;PMS5003;18953;45.930;13.640;2023-12-14T00:02:15;4;3;
32503;PMS5003;18953;45.930;13.640;2023-12-14T00:07:31;5;4;
32503;PMS5003;18953;45.930;13.640;2023-12-14T00:12:48;13;10;
32503;PMS5003;18953;45.930;13.640;2023-12-14T00:18:04;3;3;
32503;PMS5003;18953;45.930;13.640;2023-12-14T00:23:20;4;4;
32503;PMS5003;18953;45.930;13.640;2023-12-14T00:28:37;5;4;
32503;PMS5003;18953;45.930;13.640;2023-12-14T00:33:53;5;5;
32503;PMS5003;18953;45.930;13.640;2023-12-14T00:39:09;5;5;
32503;PMS5003;18953;45.930;13.640;2023-12-14T00:44:26;3;3;
32503;PMS5003;18953;45.930;13.640;2023-12-14T00:49:42;4;4;
32503;PMS5003;18953;45.930;13.640;2023-12-14T00:54:58;3;3;
32503;PMS5003;18953;45.930;13.640;2023-12-14T01:00:15;3;2;
32503;PMS5003;18953;45.930;13.640;2023-12-14T01:05:31;2;2;
32503;PMS5003;18953;45.930;13.640;2023-12-14T01:10:47;2;2;
32503;PMS5003;18953;45.930;13.640;2023-12-14T01:16:04;2;1;
32503;PMS5003;18953;45.930;13.640;2023-12-14T01:21:20;2;2;
32503;PMS5003;18953;45.930;13.640;2023-12-14T01:26:36;1;1;
32503;PMS5003;18953;45.930;13.640;2023-12-14T01:31:53;2;1;
32503;PMS5003;18953;45.930;13.640;2023-12-14T01:37:09;1;0;
32503;PMS5003;18953;45.930;13.640;2023-12-14T01:42:26;2;2;
32503;PMS5003;18953;45.930;13.640;2023-12-14T01:47:42;6;4;
32503;PMS5003;18953;45.930;13.640;2023-12-14T01:52:59;8;5;
32503;PMS5003;18953;45.930;13.640;2023-12-14T01:58:15;5;4;
32503;PMS5003;18953;45.930;13.640;2023-12-14T02:03:31;2;2;
32503;PMS5003;18953;45.930;13.640;2023-12-14T02:08:48;3;2;
32503;PMS5003;18953;45.930;13.640;2023-12-14T02:14:04;4;3;
32503;PMS5003;18953;45.930;13.640;2023-12-14T02:19:20;5;5;
32503;PMS5003;18953;45.930;13.640;2023-12-14T02:24:37;5;5;
32503;PMS5003;18953;45.930;13.640;2023-12-14T02:29:53;3;3;
32503;PMS5003;18953;45.930;13.640;2023-12-14T02:35:09;2;2;
32503;PMS5003;18953;45.930;13.640;2023-12-14T02:40:26;1;1;
32503;PMS5003;18953;45.930;13.640;2023-12-14T02:45:42;4;2;
32503;PMS5003;18953;45.930;13.640;2023-12-14T02:50:59;6;5;
32503;PMS5003;18953;45.930;13.640;2023-12-14T02:56:15;14;7;
32503;PMS5003;18953;45.930;13.640;2023-12-14T03:01:31;4;4;
32503;PMS5003;18953;45.930;13.640;2023-12-14T03:06:47;2;2;
32503;PMS5003;18953;45.930;13.640;2023-12-14T03:12:04;2;2;
32503;PMS5003;18953;45.930;13.640;2023-12-14T03:17:20;2;2;
32503;PMS5003;18953;45.930;13.640;2023-12-14T03:22:36;4;2;
32503;PMS5003;18953;45.930;13.640;2023-12-14T03:27:53;1;1;
32503;PMS5003;18953;45.930;13.640;2023-12-14T03:33:09;1;0;
32503;PMS5003;18953;45.930;13.640;2023-12-14T03:38:25;2;2;
32503;PMS5003;18953;45.930;13.640;2023-12-14T03:43:42;2;2;
32503;PMS5003;18953;45.930;13.640;2023-12-14T03:48:58;4;4;
32503;PMS5003;18953;45.930;13.640;2023-12-14T03:54:14;3;2;
32503;PMS5003;18953;45.930;13.640;2023-12-14T03:59:31;5;3;
32503;PMS5003;18953;45.930;13.640;2023-12-14T04:04:47;7;4;
32503;PMS5003;18953;45.930;13.640;2023-12-14T04:10:03;8;6;
32503;PMS5003;18953;45.930;13.640;2023-12-14T04:15:20;7;7;
32503;PMS5003;18953;45.930;13.640;2023-12-14T04:20:36;5;5;
32503;PMS5003;18953;45.930;13.640;2023-12-14T04:25:52;6;5;
32503;PMS5003;18953;45.930;13.640;2023-12-14T04:31:09;5;4;
32503;PMS5003;18953;45.930;13.640;2023-12-14T04:36:25;8;7;
32503;PMS5003;18953;45.930;13.640;2023-12-14T04:41:41;7;5;
32503;PMS5003;18953;45.930;13.640;2023-12-14T04:46:58;7;6;
32503;PMS5003;18953;45.930;13.640;2023-12-14T04:52:14;5;5;
32503;PMS5003;18953;45.930;13.640;2023-12-14T04:57:30;4;4;
32503;PMS5003;18953;45.930;13.640;2023-12-14T05:02:47;7;4;
32503;PMS5003;18953;45.930;13.640;2023-12-14T05:08:03;5;5;
32503;PMS5003;18953;45.930;13.640;2023-12-14T05:13:19;7;5;
32503;PMS5003;18953;45.930;13.640;2023-12-14T05:18:36;7;6;
32503;PMS5003;18953;45.930;13.640;2023-12-14T05:23:52;8;8;
32503;PMS5003;18953;45.930;13.640;2023-12-14T05:29:08;9;8;
32503;PMS5003;18953;45.930;13.640;2023-12-14T05:34:25;12;9;
32503;PMS5003;18953;45.930;13.640;2023-12-14T05:39:41;7;7;
32503;PMS5003;18953;45.930;13.640;2023-12-14T05:44:57;20;17;
32503;PMS5003;18953;45.930;13.640;2023-12-14T05:50:14;34;32;
32503;PMS5003;18953;45.930;13.640;2023-12-14T05:55:30;22;20;
32503;PMS5003;18953;45.930;13.640;2023-12-14T06:00:46;25;21;
32503;PMS5003;18953;45.930;13.640;2023-12-14T06:06:03;26;24;
32503;PMS5003;18953;45.930;13.640;2023-12-14T06:11:19;27;24;
32503;PMS5003;18953;45.930;13.640;2023-12-14T06:16:35;18;18;
32503;PMS5003;18953;45.930;13.640;2023-12-14T06:21:52;28;26;
32503;PMS5003;18953;45.930;13.640;2023-12-14T06:27:08;26;24;
32503;PMS5003;18953;45.930;13.640;2023-12-14T06:32:24;32;31;
32503;PMS5003;18953;45.930;13.640;2023-12-14T06:37:41;34;28;
32503;PMS5003;18953;45.930;13.640;2023-12-14T06:42:57;50;38;
32503;PMS5003;18953;45.930;13.640;2023-12-14T06:48:14;22;22;
32503;PMS5003;18953;45.930;13.640;2023-12-14T06:53:30;14;14;
32503;PMS5003;18953;45.930;13.640;2023-12-14T06:58:46;13;12;
32503;PMS5003;18953;45.930;13.640;2023-12-14T07:04:03;38;34;
32503;PMS5003;18953;45.930;13.640;2023-12-14T07:09:19;33;29;
32503;PMS5003;18953;45.930;13.640;2023-12-14T07:14:35;28;26;
32503;PMS5003;18953;45.930;13.640;2023-12-14T07:19:52;50;43;
32503;PMS5003;18953;45.930;13.640;2023-12-14T07:25:09;73;60;
32503;PMS5003;18953;45.930;13.640;2023-12-14T07:30:25;39;36;
32503;PMS5003;18953;45.930;13.640;2023-12-14T07:35:41;40;36;
32503;PMS5003;18953;45.930;13.640;2023-12-14T07:40:58;36;36;
32503;PMS5003;18953;45.930;13.640;2023-12-14T07:46:14;42;38;
32503;PMS5003;18953;45.930;13.640;2023-12-14T07:51:30;62;50;
32503;PMS5003;18953;45.930;13.640;2023-12-14T07:56:47;40;37;
32503;PMS5003;18953;45.930;13.640;2023-12-14T08:02:03;25;22;
32503;PMS5003;18953;45.930;13.640;2023-12-14T08:07:19;32;27;
32503;PMS5003;18953;45.930;13.640;2023-12-14T08:12:36;22;21;
32503;PMS5003;18953;45.930;13.640;2023-12-14T08:17:52;28;24;
32503;PMS5003;18953;45.930;13.640;2023-12-14T08:23:09;18;17;
32503;PMS5003;18953;45.930;13.640;2023-12-14T08:28:25;17;16;
32503;PMS5003;18953;45.930;13.640;2023-12-14T08:33:42;27;25;
32503;PMS5003;18953;45.930;13.640;2023-12-14T08:38:58;23;22;
32503;PMS5003;18953;45.930;13.640;2023-12-14T08:44:14;17;17;
32503;PMS5003;18953;45.930;13.640;2023-12-14T08:49:31;20;18;
32503;PMS5003;18953;45.930;13.640;2023-12-14T08:54:47;23;21;
32503;PMS5003;18953;45.930;13.640;2023-12-14T09:00:03;20;18;
32503;PMS5003;18953;45.930;13.640;2023-12-14T09:05:19;26;22;
32503;PMS5003;18953;45.930;13.640;2023-12-14T09:10:36;43;38;
32503;PMS5003;18953;45.930;13.640;2023-12-14T09:15:53;25;21;
32503;PMS5003;18953;45.930;13.640;2023-12-14T09:21:09;23;20;
32503;PMS5003;18953;45.930;13.640;2023-12-14T09:26:25;26;25;
32503;PMS5003;18953;45.930;13.640;2023-12-14T09:31:42;26;23;
32503;PMS5003;18953;45.930;13.640;2023-12-14T09:36:58;38;33;
32503;PMS5003;18953;45.930;13.640;2023-12-14T09:42:16;24;24;
32503;PMS5003;18953;45.930;13.640;2023-12-14T09:47:31;22;21;
32503;PMS5003;18953;45.930;13.640;2023-12-14T09:52:47;23;23;
32503;PMS5003;18953;45.930;13.640;2023-12-14T09:58:04;24;22;
32503;PMS5003;18953;45.930;13.640;2023-12-14T10:03:21;21;19;
32503;PMS5003;18953;45.930;13.640;2023-12-14T10:08:36;25;24;
32503;PMS5003;18953;45.930;13.640;2023-12-14T10:13:53;23;21;
32503;PMS5003;18953;45.930;13.640;2023-12-14T10:19:09;32;29;
32503;PMS5003;18953;45.930;13.640;2023-12-14T10:24:25;22;21;
32503;PMS5003;18953;45.930;13.640;2023-12-14T10:29:41;19;18;
32503;PMS5003;18953;45.930;13.640;2023-12-14T10:34:58;20;19;
32503;PMS5003;18953;45.930;13.640;2023-12-14T10:40:14;18;17;
32503;PMS5003;18953;45.930;13.640;2023-12-14T10:45:31;14;13;
32503;PMS5003;18953;45.930;13.640;2023-12-14T10:50:47;20;18;
32503;PMS5003;18953;45.930;13.640;2023-12-14T10:56:03;16;15;
32503;PMS5003;18953;45.930;13.640;2023-12-14T11:01:20;9;9;
32503;PMS5003;18953;45.930;13.640;2023-12-14T11:06:36;10;10;
32503;PMS5003;18953;45.930;13.640;2023-12-14T11:11:55;4;4;
32503;PMS5003;18953;45.930;13.640;2023-12-14T11:17:08;6;5;
32503;PMS5003;18953;45.930;13.640;2023-12-14T11:22:26;8;8;
32503;PMS5003;18953;45.930;13.640;2023-12-14T11:27:42;9;9;
32503;PMS5003;18953;45.930;13.640;2023-12-14T11:32:57;6;6;
32503;PMS5003;18953;45.930;13.640;2023-12-14T11:38:13;8;7;
32503;PMS5003;18953;45.930;13.640;2023-12-14T11:43:33;8;7;
32503;PMS5003;18953;45.930;13.640;2023-12-14T11:48:46;6;6;
32503;PMS5003;18953;45.930;13.640;2023-12-14T11:54:02;8;6;
32503;PMS5003;18953;45.930;13.640;2023-12-14T11:59:18;12;12;
32503;PMS5003;18953;45.930;13.640;2023-12-14T12:04:35;40;33;
32503;PMS5003;18953;45.930;13.640;2023-12-14T12:09:52;12;12;
32503;PMS5003;18953;45.930;13.640;2023-12-14T12:15:08;12;10;
32503;PMS5003;18953;45.930;13.640;2023-12-14T12:20:24;8;7;
32503;PMS5003;18953;45.930;13.640;2023-12-14T12:25:40;9;9;
32503;PMS5003;18953;45.930;13.640;2023-12-14T12:30:57;10;10;
32503;PMS5003;18953;45.930;13.640;2023-12-14T12:36:13;12;11;
32503;PMS5003;18953;45.930;13.640;2023-12-14T12:41:29;8;7;
32503;PMS5003;18953;45.930;13.640;2023-12-14T12:46:46;10;9;
32503;PMS5003;18953;45.930;13.640;2023-12-14T12:52:02;9;8;
32503;PMS5003;18953;45.930;13.640;2023-12-14T12:57:18;9;8;
32503;PMS5003;18953;45.930;13.640;2023-12-14T13:02:34;20;15;
32503;PMS5003;18953;45.930;13.640;2023-12-14T13:07:51;30;25;
32503;PMS5003;18953;45.930;13.640;2023-12-14T13:13:07;16;14;
32503;PMS5003;18953;45.930;13.640;2023-12-14T13:18:23;15;13;
32503;PMS5003;18953;45.930;13.640;2023-12-14T13:23:40;27;23;
32503;PMS5003;18953;45.930;13.640;2023-12-14T13:28:56;30;26;
32503;PMS5003;18953;45.930;13.640;2023-12-14T13:34:12;30;26;
32503;PMS5003;18953;45.930;13.640;2023-12-14T13:39:29;19;18;
32503;PMS5003;18953;45.930;13.640;2023-12-14T13:44:45;29;27;
32503;PMS5003;18953;45.930;13.640;2023-12-14T13:50:01;26;23;
32503;PMS5003;18953;45.930;13.640;2023-12-14T13:55:18;21;19;
32503;PMS5003;18953;45.930;13.640;2023-12-14T14:00:34;28;26;
32503;PMS5003;18953;45.930;13.640;2023-12-14T14:05:51;23;23;
32503;PMS5003;18953;45.930;13.640;2023-12-14T14:11:07;23;23;
32503;PMS5003;18953;45.930;13.640;2023-12-14T14:16:23;29;28;
32503;PMS5003;18953;45.930;13.640;2023-12-14T14:21:40;38;35;
32503;PMS5003;18953;45.930;13.640;2023-12-14T14:26:56;42;38;
32503;PMS5003;18953;45.930;13.640;2023-12-14T14:32:13;45;36;
32503;PMS5003;18953;45.930;13.640;2023-12-14T14:37:29;40;37;
32503;PMS5003;18953;45.930;13.640;2023-12-14T14:42:46;51;42;
32503;PMS5003;18953;45.930;13.640;2023-12-14T14:48:02;60;46;
32503;PMS5003;18953;45.930;13.640;2023-12-14T14:53:18;50;41;
32503;PMS5003;18953;45.930;13.640;2023-12-14T14:58:35;60;50;
32503;PMS5003;18953;45.930;13.640;2023-12-14T15:03:51;58;48;
32503;PMS5003;18953;45.930;13.640;2023-12-14T15:09:08;62;50;
32503;PMS5003;18953;45.930;13.640;2023-12-14T15:14:24;64;51;
32503;PMS5003;18953;45.930;13.640;2023-12-14T15:19:41;61;51;
32503;PMS5003;18953;45.930;13.640;2023-12-14T15:24:57;60;48;
32503;PMS5003;18953;45.930;13.640;2023-12-14T15:30:14;57;47;
32503;PMS5003;18953;45.930;13.640;2023-12-14T15:35:30;63;51;
32503;PMS5003;18953;45.930;13.640;2023-12-14T15:40:46;57;46;
32503;PMS5003;18953;45.930;13.640;2023-12-14T15:46:03;49;42;
32503;PMS5003;18953;45.930;13.640;2023-12-14T15:51:20;67;52;
32503;PMS5003;18953;45.930;13.640;2023-12-14T15:56:37;88;70;
32503;PMS5003;18953;45.930;13.640;2023-12-14T16:01:53;96;81;
32503;PMS5003;18953;45.930;13.640;2023-12-14T16:07:10;52;42;
32503;PMS5003;18953;45.930;13.640;2023-12-14T16:12:27;66;54;
32503;PMS5003;18953;45.930;13.640;2023-12-14T16:17:44;63;50;
32503;PMS5003;18953;45.930;13.640;2023-12-14T16:23:00;70;55;
32503;PMS5003;18953;45.930;13.640;2023-12-14T16:28:16;65;52;
32503;PMS5003;18953;45.930;13.640;2023-12-14T16:33:33;68;54;
32503;PMS5003;18953;45.930;13.640;2023-12-14T16:38:49;68;55;
32503;PMS5003;18953;45.930;13.640;2023-12-14T16:44:06;60;50;
32503;PMS5003;18953;45.930;13.640;2023-12-14T16:49:23;65;52;
32503;PMS5003;18953;45.930;13.640;2023-12-14T16:54:40;72;57;
32503;PMS5003;18953;45.930;13.640;2023-12-14T16:59:56;110;92;
32503;PMS5003;18953;45.930;13.640;2023-12-14T17:05:12;85;65;
32503;PMS5003;18953;45.930;13.640;2023-12-14T17:10:28;99;84;
32503;PMS5003;18953;45.930;13.640;2023-12-14T17:15:45;84;68;
32503;PMS5003;18953;45.930;13.640;2023-12-14T17:21:02;87;67;
32503;PMS5003;18953;45.930;13.640;2023-12-14T17:26:18;93;77;
32503;PMS5003;18953;45.930;13.640;2023-12-14T17:31:35;64;52;
32503;PMS5003;18953;45.930;13.640;2023-12-14T17:36:52;75;59;
32503;PMS5003;18953;45.930;13.640;2023-12-14T17:42:09;80;64;
32503;PMS5003;18953;45.930;13.640;2023-12-14T17:47:25;70;55;
32503;PMS5003;18953;45.930;13.640;2023-12-14T17:52:42;67;55;
32503;PMS5003;18953;45.930;13.640;2023-12-14T17:57:58;57;46;
32503;PMS5003;18953;45.930;13.640;2023-12-14T18:03:15;50;45;
32503;PMS5003;18953;45.930;13.640;2023-12-14T18:08:31;74;58;
32503;PMS5003;18953;45.930;13.640;2023-12-14T18:13:48;68;55;
32503;PMS5003;18953;45.930;13.640;2023-12-14T18:19:05;88;68;
32503;PMS5003;18953;45.930;13.640;2023-12-14T18:24:21;69;54;
32503;PMS5003;18953;45.930;13.640;2023-12-14T18:29:38;85;67;
32503;PMS5003;18953;45.930;13.640;2023-12-14T18:34:55;92;70;
32503;PMS5003;18953;45.930;13.640;2023-12-14T18:40:11;58;49;
32503;PMS5003;18953;45.930;13.640;2023-12-14T18:45:28;62;49;
32503;PMS5003;18953;45.930;13.640;2023-12-14T18:50:44;81;63;
32503;PMS5003;18953;45.930;13.640;2023-12-14T18:56:00;60;50;
32503;PMS5003;18953;45.930;13.640;2023-12-14T19:01:17;80;63;
32503;PMS5003;18953;45.930;13.640;2023-12-14T19:06:33;71;57;
32503;PMS5003;18953;45.930;13.640;2023-12-14T19:11:50;79;60;
32503;PMS5003;18953;45.930;13.640;2023-12-14T19:17:06;92;71;
32503;PMS5003;18953;45.930;13.640;2023-12-14T19:22:22;73;59;
32503;PMS5003;18953;45.930;13.640;2023-12-14T19:27:39;87;69;
32503;PMS5003;18953;45.930;13.640;2023-12-14T19:32:55;79;62;
32503;PMS5003;18953;45.930;13.640;2023-12-14T19:38:11;82;65;
32503;PMS5003;18953;45.930;13.640;2023-12-14T19:43:27;87;65;
32503;PMS5003;18953;45.930;13.640;2023-12-14T19:48:44;79;60;
32503;PMS5003;18953;45.930;13.640;2023-12-14T19:54:01;76;60;
32503;PMS5003;18953;45.930;13.640;2023-12-14T19:59:17;82;65;
32503;PMS5003;18953;45.930;13.640;2023-12-14T20:04:34;74;58;
32503;PMS5003;18953;45.930;13.640;2023-12-14T20:09:50;81;64;
32503;PMS5003;18953;45.930;13.640;2023-12-14T20:15:10;65;53;
32503;PMS5003;18953;45.930;13.640;2023-12-14T20:20:23;63;51;
32503;PMS5003;18953;45.930;13.640;2023-12-14T20:25:40;72;57;
32503;PMS5003;18953;45.930;13.640;2023-12-14T20:30:57;75;56;
32503;PMS5003;18953;45.930;13.640;2023-12-14T20:36:13;62;51;
32503;PMS5003;18953;45.930;13.640;2023-12-14T20:41:30;65;52;
32503;PMS5003;18953;45.930;13.640;2023-12-14T20:46:46;53;45;
32503;PMS5003;18953;45.930;13.640;2023-12-14T20:52:03;61;49;
32503;PMS5003;18953;45.930;13.640;2023-12-14T20:57:19;58;48;
32503;PMS5003;18953;45.930;13.640;2023-12-14T21:02:36;45;40;
32503;PMS5003;18953;45.930;13.640;2023-12-14T21:07:52;56;48;
32503;PMS5003;18953;45.930;13.640;2023-12-14T21:13:08;50;43;
32503;PMS5003;18953;45.930;13.640;2023-12-14T21:18:25;70;56;
32503;PMS5003;18953;45.930;13.640;2023-12-14T21:23:41;61;50;
32503;PMS5003;18953;45.930;13.640;2023-12-14T21:28:57;49;41;
32503;PMS5003;18953;45.930;13.640;2023-12-14T21:34:13;70;54;
32503;PMS5003;18953;45.930;13.640;2023-12-14T21:39:30;58;49;
32503;PMS5003;18953;45.930;13.640;2023-12-14T21:44:46;45;37;
32503;PMS5003;18953;45.930;13.640;2023-12-14T21:50:02;62;47;
32503;PMS5003;18953;45.930;13.640;2023-12-14T21:55:19;46;41;
32503;PMS5003;18953;45.930;13.640;2023-12-14T22:00:35;42;38;
32503;PMS5003;18953;45.930;13.640;2023-12-14T22:05:51;30;29;
32503;PMS5003;18953;45.930;13.640;2023-12-14T22:11:08;36;32;
32503;PMS5003;18953;45.930;13.640;2023-12-14T22:16:24;40;36;
32503;PMS5003;18953;45.930;13.640;2023-12-14T22:21:40;33;27;
32503;PMS5003;18953;45.930;13.640;2023-12-14T22:26:58;82;65;
32503;PMS5003;18953;45.930;13.640;2023-12-14T22:32:14;34;32;
32503;PMS5003;18953;45.930;13.640;2023-12-14T22:37:31;49;42;
32503;PMS5003;18953;45.930;13.640;2023-12-14T22:42:47;44;42;
32503;PMS5003;18953;45.930;13.640;2023-12-14T22:48:04;32;27;
32503;PMS5003;18953;45.930;13.640;2023-12-14T22:53:20;32;30;
32503;PMS5003;18953;45.930;13.640;2023-12-14T22:58:37;33;30;
32503;PMS5003;18953;45.930;13.640;2023-12-14T23:03:53;29;26;
32503;PMS5003;18953;45.930;13.640;2023-12-14T23:09:09;36;34;
32503;PMS5003;18953;45.930;13.640;2023-12-14T23:14:27;30;28;
32503;PMS5003;18953;45.930;13.640;2023-12-14T23:19:43;47;43;
32503;PMS5003;18953;45.930;13.640;2023-12-14T23:24:59;33;28;
32503;PMS5003;18953;45.930;13.640;2023-12-14T23:30:16;34;31;
32503;PMS5003;18953;45.930;13.640;2023-12-14T23:35:32;38;34;
32503;PMS5003;18953;45.930;13.640;2023-12-14T23:40:49;28;25;
32503;PMS5003;18953;45.930;13.640;2023-12-14T23:46:05;37;34;
32503;PMS5003;18953;45.930;13.640;2023-12-14T23:51:22;18;16;
32503;PMS5003;18953;45.930;13.640;2023-12-14T23:56:38;22;16;
